createdAt,value
2023-04-16T00:01:08.566Z,7.33
2023-04-16T00:03:35.313Z,7.40
2023-04-16T00:06:02.107Z,7.37
2023-04-16T00:08:28.486Z,7.27
2023-04-16T00:10:54.934Z,7.32
2023-04-16T00:13:22.541Z,7.40
2023-04-16T00:15:49.010Z,7.45
2023-04-16T00:18:15.393Z,7.39
2023-04-16T00:20:41.843Z,7.39
2023-04-16T00:23:08.200Z,7.33
2023-04-16T00:25:34.694Z,7.34
2023-04-16T00:28:01.139Z,7.30
2023-04-16T00:30:27.658Z,7.22
2023-04-16T00:32:54.189Z,7.35
2023-04-16T00:35:20.654Z,7.28
2023-04-16T00:37:47.234Z,7.37
2023-04-16T00:40:13.725Z,7.40
2023-04-16T00:42:40.321Z,7.30
2023-04-16T00:45:07.398Z,7.35
2023-04-16T00:47:33.960Z,7.33
2023-04-16T00:50:00.491Z,7.39
2023-04-16T00:52:27.554Z,7.39
2023-04-16T00:54:54.038Z,7.34
2023-04-16T00:57:23.932Z,7.35
2023-04-16T00:59:51.328Z,7.31
2023-04-16T01:02:18.003Z,7.25
2023-04-16T01:04:44.571Z,7.21
2023-04-16T01:07:11.233Z,7.27
2023-04-16T01:09:37.664Z,7.34
2023-04-16T01:12:04.228Z,7.24
2023-04-16T01:14:36.059Z,7.22
2023-04-16T01:17:03.864Z,7.43
2023-04-16T01:19:36.316Z,7.40
2023-04-16T01:22:03.806Z,7.22
2023-04-16T01:24:30.699Z,7.33
2023-04-16T01:27:00.589Z,7.36
2023-04-16T01:29:27.268Z,7.30
2023-04-16T01:31:54.296Z,7.37
2023-04-16T01:34:21.084Z,7.35
2023-04-16T01:36:47.518Z,7.24
2023-04-16T01:39:16.271Z,7.21
2023-04-16T01:41:43.252Z,7.20
2023-04-16T01:44:09.712Z,7.32
2023-04-16T01:46:37.717Z,7.27
2023-04-16T01:49:05.172Z,7.23
2023-04-16T01:51:32.288Z,7.27
2023-04-16T01:53:58.926Z,7.33
2023-04-16T01:56:25.990Z,7.34
2023-04-16T01:58:53.184Z,7.24
2023-04-16T02:01:20.100Z,7.35
2023-04-16T02:03:47.521Z,7.35
2023-04-16T02:06:14.744Z,7.38
2023-04-16T02:08:41.806Z,7.36
2023-04-16T02:11:08.214Z,7.36
2023-04-16T02:13:34.857Z,7.36
2023-04-16T02:16:02.413Z,7.27
2023-04-16T02:18:28.900Z,7.35
2023-04-16T02:20:58.441Z,7.31
2023-04-16T02:23:24.905Z,7.39
2023-04-16T02:25:51.622Z,7.30
2023-04-16T02:28:18.049Z,7.19
2023-04-16T02:30:44.548Z,7.25
2023-04-16T02:33:12.180Z,7.31
2023-04-16T02:35:39.630Z,7.37
2023-04-16T02:38:06.510Z,7.46
2023-04-16T02:40:33.169Z,7.50
2023-04-16T02:42:59.748Z,7.33
2023-04-16T02:45:26.147Z,7.41
2023-04-16T02:47:52.597Z,7.45
2023-04-16T02:50:19.176Z,7.43
2023-04-16T02:52:46.016Z,7.44
2023-04-16T02:55:12.480Z,7.41
2023-04-16T02:57:39.003Z,7.40
2023-04-16T03:00:06.115Z,7.39
2023-04-16T03:02:32.671Z,7.47
2023-04-16T03:04:59.396Z,7.47
2023-04-16T03:07:26.180Z,7.40
2023-04-16T03:09:52.746Z,7.42
2023-04-16T03:12:19.187Z,7.37
2023-04-16T03:14:45.648Z,7.40
2023-04-16T03:17:12.218Z,7.48
2023-04-16T03:19:38.612Z,7.28
2023-04-16T03:22:05.382Z,7.43
2023-04-16T03:24:32.184Z,7.23
2023-04-16T03:26:58.943Z,7.33
2023-04-16T03:29:26.704Z,7.28
2023-04-16T03:31:53.368Z,7.28
2023-04-16T03:34:19.881Z,7.35
2023-04-16T03:36:46.452Z,7.26
2023-04-16T03:39:15.309Z,7.24
2023-04-16T03:41:41.875Z,7.28
2023-04-16T03:44:08.761Z,7.32
2023-04-16T03:46:35.478Z,7.36
2023-04-16T03:49:01.895Z,7.31
2023-04-16T03:51:28.449Z,7.39
2023-04-16T03:53:55.125Z,7.38
2023-04-16T03:56:21.564Z,7.39
2023-04-16T03:58:48.109Z,7.34
2023-04-16T04:01:14.490Z,7.27
2023-04-16T04:03:41.140Z,7.30
2023-04-16T04:06:08.676Z,7.24
2023-04-16T04:08:35.543Z,7.24
2023-04-16T04:11:02.037Z,7.19
2023-04-16T04:13:28.560Z,7.15
2023-04-16T04:15:55.481Z,7.12
2023-04-16T04:18:22.035Z,7.16
2023-04-16T04:20:48.616Z,7.23
2023-04-16T04:23:15.591Z,7.14
2023-04-16T04:25:42.085Z,7.19
2023-04-16T04:28:08.562Z,7.22
2023-04-16T04:30:35.982Z,7.16
2023-04-16T04:33:02.710Z,7.11
2023-04-16T04:35:29.217Z,7.07
2023-04-16T04:37:55.726Z,7.09
2023-04-16T04:40:22.361Z,7.11
2023-04-16T04:42:49.048Z,7.13
2023-04-16T04:45:16.091Z,7.18
2023-04-16T04:47:42.754Z,7.15
2023-04-16T04:50:09.806Z,7.17
2023-04-16T04:52:36.386Z,7.14
2023-04-16T04:55:02.942Z,7.14
2023-04-16T04:57:29.303Z,7.12
2023-04-16T04:59:55.931Z,7.13
2023-04-16T05:02:22.524Z,7.11
2023-04-16T05:04:49.068Z,7.12
2023-04-16T05:07:16.279Z,7.13
2023-04-16T05:09:42.865Z,7.18
2023-04-16T05:12:09.444Z,7.25
2023-04-16T05:14:36.326Z,7.25
2023-04-16T05:17:02.962Z,7.23
2023-04-16T05:19:29.706Z,7.38
2023-04-16T05:21:56.252Z,7.35
2023-04-16T05:24:23.256Z,7.34
2023-04-16T05:26:49.862Z,7.39
2023-04-16T05:29:16.287Z,7.48
2023-04-16T05:31:43.067Z,7.31
2023-04-16T05:34:09.606Z,7.36
2023-04-16T05:36:36.045Z,7.39
2023-04-16T05:39:02.870Z,7.24
2023-04-16T05:41:29.396Z,7.37
2023-04-16T05:43:56.172Z,7.27
2023-04-16T05:46:22.767Z,7.39
2023-04-16T05:48:49.322Z,7.39
2023-04-16T05:51:15.874Z,7.38
2023-04-16T05:53:42.362Z,7.27
2023-04-16T05:56:09.079Z,7.36
2023-04-16T05:58:35.533Z,7.28
2023-04-16T06:01:02.206Z,7.27
2023-04-16T06:03:28.827Z,7.32
2023-04-16T06:05:55.588Z,7.23
2023-04-16T06:08:22.188Z,7.36
2023-04-16T06:10:49.184Z,7.34
2023-04-16T06:13:15.657Z,7.24
2023-04-16T06:15:42.338Z,7.34
2023-04-16T06:18:09.206Z,7.24
2023-04-16T06:20:36.256Z,7.21
2023-04-16T06:23:02.749Z,7.23
2023-04-16T06:25:29.321Z,7.28
2023-04-16T06:27:56.027Z,7.30
2023-04-16T06:30:22.493Z,7.37
2023-04-16T06:32:49.322Z,7.32
2023-04-16T06:35:16.062Z,7.28
2023-04-16T06:37:42.577Z,7.32
2023-04-16T06:40:09.475Z,7.30
2023-04-16T06:42:36.085Z,7.22
2023-04-16T06:45:02.701Z,7.17
2023-04-16T06:47:29.194Z,7.16
2023-04-16T06:49:55.671Z,7.24
2023-04-16T06:52:22.250Z,7.25
2023-04-16T06:54:48.778Z,7.23
2023-04-16T06:57:16.169Z,7.18
2023-04-16T06:59:42.829Z,7.23
2023-04-16T07:02:10.481Z,7.31
2023-04-16T07:04:37.310Z,7.31
2023-04-16T07:07:03.847Z,7.37
2023-04-16T07:09:30.623Z,7.38
2023-04-16T07:11:57.134Z,7.33
2023-04-16T07:14:23.614Z,7.35
2023-04-16T07:16:50.210Z,7.44
2023-04-16T07:19:16.795Z,7.43
2023-04-16T07:21:43.728Z,7.42
2023-04-16T07:24:11.610Z,7.44
2023-04-16T07:26:38.110Z,7.43
2023-04-16T07:29:04.584Z,7.47
2023-04-16T07:31:31.374Z,7.47
2023-04-16T07:33:58.383Z,7.54
2023-04-16T07:36:25.229Z,7.47
2023-04-16T07:38:51.656Z,7.54
2023-04-16T07:41:18.134Z,7.56
2023-04-16T07:43:44.542Z,7.57
2023-04-16T07:46:11.256Z,7.60
2023-04-16T07:48:37.659Z,7.60
2023-04-16T07:51:04.116Z,7.57
2023-04-16T07:53:30.732Z,7.57
2023-04-16T07:55:57.187Z,7.58
2023-04-16T07:58:23.731Z,7.65
2023-04-16T08:00:51.056Z,7.75
2023-04-16T08:03:18.282Z,7.75
2023-04-16T08:05:45.185Z,7.91
2023-04-16T08:08:11.709Z,8.04
2023-04-16T08:10:39.265Z,8.23
2023-04-16T08:13:05.926Z,8.24
2023-04-16T08:15:32.471Z,8.33
2023-04-16T08:17:59.655Z,8.48
2023-04-16T08:20:26.259Z,8.61
2023-04-16T08:22:54.194Z,8.81
2023-04-16T08:25:20.821Z,9.07
2023-04-16T08:27:50.133Z,9.12
2023-04-16T08:30:16.714Z,9.19
2023-04-16T08:32:43.797Z,9.40
2023-04-16T08:35:10.348Z,9.54
2023-04-16T08:37:36.779Z,9.67
2023-04-16T08:40:03.653Z,9.92
2023-04-16T08:42:34.027Z,10.11
2023-04-16T08:45:13.233Z,10.09
2023-04-16T08:47:41.328Z,9.91
2023-04-16T08:50:11.204Z,9.87
2023-04-16T08:52:43.285Z,9.94
2023-04-16T08:55:17.122Z,9.93
2023-04-16T08:57:58.141Z,10.09
2023-04-16T09:00:25.352Z,9.99
2023-04-16T09:02:53.061Z,9.77
2023-04-16T09:05:22.654Z,9.71
2023-04-16T09:07:49.253Z,9.67
2023-04-16T09:10:16.451Z,9.84
2023-04-16T09:12:43.527Z,9.84
2023-04-16T09:15:11.545Z,9.70
2023-04-16T09:17:38.827Z,9.73
2023-04-16T09:20:08.718Z,9.62
2023-04-16T09:22:36.223Z,9.58
2023-04-16T09:25:02.876Z,9.63
2023-04-16T09:27:30.335Z,9.64
2023-04-16T09:29:56.853Z,9.89
2023-04-16T09:32:27.651Z,9.97
2023-04-16T09:35:01.851Z,10.17
2023-04-16T09:37:30.442Z,10.05
2023-04-16T09:40:04.647Z,9.98
2023-04-16T09:42:33.478Z,10.12
2023-04-16T09:45:02.638Z,10.33
2023-04-16T09:47:44.782Z,10.18
2023-04-16T09:50:19.257Z,10.14
2023-04-16T09:52:49.525Z,10.13
2023-04-16T09:55:15.967Z,10.25
2023-04-16T09:57:42.486Z,10.45
2023-04-16T10:00:10.254Z,10.34
2023-04-16T10:02:41.587Z,10.31
2023-04-16T10:05:08.824Z,10.35
2023-04-16T10:07:36.798Z,10.19
2023-04-16T10:10:04.239Z,10.12
2023-04-16T10:12:32.652Z,10.07
2023-04-16T10:14:59.181Z,10.02
2023-04-16T10:17:26.440Z,9.72
2023-04-16T10:19:54.697Z,9.81
2023-04-16T10:22:21.338Z,9.76
2023-04-16T10:24:48.788Z,9.70
2023-04-16T10:27:16.596Z,9.66
2023-04-16T10:29:44.286Z,9.68
2023-04-16T10:32:11.323Z,9.67
2023-04-16T10:34:37.942Z,9.63
2023-04-16T10:37:04.450Z,9.64
2023-04-16T10:39:31.006Z,9.56
2023-04-16T10:42:11.769Z,9.56
2023-04-16T10:44:39.997Z,9.57
2023-04-16T10:47:12.799Z,9.54
2023-04-16T10:49:40.254Z,9.60
2023-04-16T10:52:12.631Z,9.67
2023-04-16T10:54:40.306Z,9.73
2023-04-16T10:57:09.096Z,9.67
2023-04-16T10:59:39.754Z,9.73
2023-04-16T11:02:13.741Z,9.73
2023-04-16T11:04:44.238Z,9.72
2023-04-16T11:07:24.273Z,9.79
2023-04-16T11:10:05.197Z,9.83
2023-04-16T11:12:39.607Z,9.87
2023-04-16T11:15:11.151Z,9.94
2023-04-16T11:17:49.098Z,9.93
2023-04-16T11:20:23.984Z,9.99
2023-04-16T11:22:52.372Z,10.14
2023-04-16T11:25:31.611Z,10.10
2023-04-16T11:28:01.616Z,9.96
2023-04-16T11:30:35.396Z,10.06
2023-04-16T11:33:07.675Z,10.17
2023-04-16T11:35:34.107Z,10.23
2023-04-16T11:38:00.841Z,10.34
2023-04-16T11:40:31.221Z,10.36
2023-04-16T11:43:02.862Z,10.38
2023-04-16T11:45:29.383Z,10.36
2023-04-16T11:47:57.755Z,10.39
2023-04-16T11:50:28.667Z,10.30
2023-04-16T11:52:57.027Z,10.29
2023-04-16T11:55:24.146Z,10.24
2023-04-16T11:57:51.728Z,10.33
2023-04-16T12:00:24.680Z,10.22
2023-04-16T12:02:55.352Z,10.29
2023-04-16T12:05:31.325Z,10.40
2023-04-16T12:08:03.330Z,10.63
2023-04-16T12:10:30.833Z,10.80
2023-04-16T12:13:17.833Z,11.12
2023-04-16T12:15:51.855Z,11.44
2023-04-16T12:18:20.202Z,11.67
2023-04-16T12:20:47.578Z,11.71
2023-04-16T12:23:28.500Z,11.91
2023-04-16T12:25:55.920Z,11.81
2023-04-16T12:28:33.964Z,11.96
2023-04-16T12:31:01.793Z,11.89
2023-04-16T12:33:28.789Z,12.00
2023-04-16T12:35:55.516Z,12.17
2023-04-16T12:38:24.298Z,12.28
2023-04-16T12:40:51.965Z,12.40
2023-04-16T12:43:19.685Z,12.36
2023-04-16T12:45:46.304Z,12.01
2023-04-16T12:48:12.676Z,12.13
2023-04-16T12:50:39.785Z,12.02
2023-04-16T12:53:06.305Z,12.24
2023-04-16T12:55:32.821Z,12.27
2023-04-16T12:57:59.293Z,12.37
2023-04-16T13:00:25.822Z,12.04
2023-04-16T13:02:52.492Z,12.02
2023-04-16T13:05:19.591Z,11.80
2023-04-16T13:07:46.417Z,11.79
2023-04-16T13:10:13.501Z,11.75
2023-04-16T13:12:41.266Z,11.61
2023-04-16T13:15:08.506Z,11.39
2023-04-16T13:17:35.033Z,11.56
2023-04-16T13:20:01.751Z,11.92
2023-04-16T13:22:28.415Z,12.11
2023-04-16T13:24:55.426Z,12.21
2023-04-16T13:27:22.021Z,12.23
2023-04-16T13:29:48.570Z,12.12
2023-04-16T13:32:15.454Z,12.17
2023-04-16T13:34:42.689Z,12.05
2023-04-16T13:37:09.168Z,11.98
2023-04-16T13:39:36.011Z,11.97
2023-04-16T13:42:02.767Z,12.07
2023-04-16T13:44:29.453Z,12.34
2023-04-16T13:46:56.290Z,12.44
2023-04-16T13:49:23.542Z,12.82
2023-04-16T13:51:50.717Z,13.03
2023-04-16T13:54:17.276Z,12.99
2023-04-16T13:56:44.003Z,13.00
2023-04-16T13:59:11.021Z,13.39
2023-04-16T14:01:37.913Z,13.50
2023-04-16T14:04:06.796Z,13.27
2023-04-16T14:06:34.778Z,13.09
2023-04-16T14:09:01.985Z,12.93
2023-04-16T14:11:28.788Z,12.96
2023-04-16T14:14:13.999Z,12.82
2023-04-16T14:16:40.680Z,12.75
2023-04-16T14:19:07.201Z,12.74
2023-04-16T14:21:33.667Z,12.74
2023-04-16T14:24:00.284Z,12.77
2023-04-16T14:26:26.883Z,12.72
2023-04-16T14:28:53.465Z,12.67
2023-04-16T14:31:20.580Z,12.75
2023-04-16T14:33:47.301Z,12.66
2023-04-16T14:36:14.179Z,12.51
2023-04-16T14:38:40.865Z,12.56
2023-04-16T14:41:07.328Z,12.42
2023-04-16T14:43:34.155Z,12.26
2023-04-16T14:46:00.625Z,12.30
2023-04-16T14:48:27.164Z,12.24
2023-04-16T14:50:54.000Z,12.08
2023-04-16T14:53:20.549Z,11.91
2023-04-16T14:55:47.574Z,11.88
2023-04-16T14:58:14.145Z,11.87
2023-04-16T15:00:40.983Z,12.02
2023-04-16T15:03:07.701Z,12.01
2023-04-16T15:05:35.653Z,11.98
2023-04-16T15:08:02.449Z,11.92
2023-04-16T15:10:28.977Z,11.83
2023-04-16T15:12:55.471Z,11.77
2023-04-16T15:15:21.960Z,11.70
2023-04-16T15:17:50.276Z,11.67
2023-04-16T15:20:16.727Z,11.63
2023-04-16T15:22:43.150Z,11.53
2023-04-16T15:25:09.716Z,11.46
2023-04-16T15:27:36.615Z,11.41
2023-04-16T15:30:03.510Z,11.29
2023-04-16T15:32:31.061Z,11.32
2023-04-16T15:34:57.544Z,11.36
2023-04-16T15:37:24.153Z,11.26
2023-04-16T15:39:50.783Z,11.32
2023-04-16T15:42:17.350Z,11.29
2023-04-16T15:44:43.857Z,11.36
2023-04-16T15:47:10.759Z,11.31
2023-04-16T15:49:37.232Z,11.37
2023-04-16T15:52:04.002Z,11.44
2023-04-16T15:54:31.683Z,11.38
2023-04-16T15:56:58.955Z,11.30
2023-04-16T15:59:29.016Z,11.19
2023-04-16T16:01:55.949Z,11.12
2023-04-16T16:04:23.282Z,11.11
2023-04-16T16:06:50.858Z,11.01
2023-04-16T16:09:18.575Z,10.93
2023-04-16T16:11:45.133Z,10.90
2023-04-16T16:14:11.832Z,10.86
2023-04-16T16:16:39.632Z,10.82
2023-04-16T16:19:06.854Z,10.69
2023-04-16T16:21:33.513Z,10.72
2023-04-16T16:24:00.244Z,10.72
2023-04-16T16:26:27.950Z,10.65
2023-04-16T16:28:54.399Z,10.56
2023-04-16T16:31:21.093Z,10.61
2023-04-16T16:33:47.697Z,10.58
2023-04-16T16:36:14.296Z,10.61
2023-04-16T16:38:41.285Z,10.63
2023-04-16T16:41:08.107Z,10.54
2023-04-16T16:43:37.669Z,10.48
2023-04-16T16:46:05.695Z,10.38
2023-04-16T16:48:32.050Z,10.35
2023-04-16T16:50:58.615Z,10.34
2023-04-16T16:53:25.217Z,10.32
2023-04-16T16:55:51.648Z,10.26
2023-04-16T16:58:18.071Z,10.22
2023-04-16T17:00:44.601Z,10.15
2023-04-16T17:03:11.404Z,10.13
2023-04-16T17:05:38.177Z,10.15
2023-04-16T17:08:04.814Z,10.17
2023-04-16T17:10:31.259Z,10.07
2023-04-16T17:12:57.746Z,10.04
2023-04-16T17:15:24.325Z,9.97
2023-04-16T17:17:50.893Z,9.93
2023-04-16T17:20:17.531Z,9.95
2023-04-16T17:22:44.084Z,9.90
2023-04-16T17:25:10.922Z,9.88
2023-04-16T17:27:37.397Z,9.84
2023-04-16T17:30:05.462Z,9.82
2023-04-16T17:32:32.718Z,9.75
2023-04-16T17:35:01.120Z,9.85
2023-04-16T17:37:27.730Z,9.86
2023-04-16T17:39:54.240Z,9.88
2023-04-16T17:42:20.715Z,9.81
2023-04-16T17:44:47.571Z,9.80
2023-04-16T17:47:14.251Z,9.77
2023-04-16T17:49:40.950Z,9.81
2023-04-16T17:52:07.596Z,9.74
2023-04-16T17:54:34.370Z,9.71
2023-04-16T17:57:01.770Z,9.63
2023-04-16T17:59:28.545Z,9.73
2023-04-16T18:01:56.233Z,9.73
2023-04-16T18:04:23.060Z,9.66
2023-04-16T18:06:49.586Z,9.71
2023-04-16T18:09:16.134Z,9.71
2023-04-16T18:11:42.657Z,9.48
2023-04-16T18:14:11.499Z,9.57
2023-04-16T18:16:38.237Z,9.64
2023-04-16T18:19:05.522Z,9.63
2023-04-16T18:21:32.117Z,9.64
2023-04-16T18:24:00.838Z,9.61
2023-04-16T18:26:29.718Z,9.51
2023-04-16T18:28:56.643Z,9.50
2023-04-16T18:31:23.171Z,9.61
2023-04-16T18:33:57.252Z,9.67
2023-04-16T18:36:24.449Z,9.73
2023-04-16T18:39:01.021Z,9.79
2023-04-16T18:41:29.278Z,9.84
2023-04-16T18:43:55.974Z,10.11
2023-04-16T18:46:22.618Z,10.02
2023-04-16T18:48:49.230Z,9.87
2023-04-16T18:51:16.713Z,9.86
2023-04-16T18:53:44.320Z,9.76
2023-04-16T18:56:11.515Z,9.78
2023-04-16T18:58:38.090Z,9.87
2023-04-16T19:01:05.349Z,9.78
2023-04-16T19:03:32.082Z,9.74
2023-04-16T19:05:58.783Z,9.74
2023-04-16T19:08:25.361Z,9.73
2023-04-16T19:10:51.860Z,9.77
2023-04-16T19:13:18.333Z,9.78
2023-04-16T19:15:44.728Z,9.70
2023-04-16T19:18:11.208Z,9.67
2023-04-16T19:20:37.796Z,9.68
2023-04-16T19:23:05.596Z,9.79
2023-04-16T19:25:32.577Z,9.82
2023-04-16T19:27:59.375Z,9.73
2023-04-16T19:30:26.439Z,9.59
2023-04-16T19:32:55.182Z,9.61
2023-04-16T19:35:22.105Z,9.59
2023-04-16T19:37:48.688Z,9.54
2023-04-16T19:40:15.264Z,9.47
2023-04-16T19:42:41.954Z,9.42
2023-04-16T19:45:08.653Z,9.32
2023-04-16T19:47:35.559Z,9.30
2023-04-16T19:50:02.149Z,9.26
2023-04-16T19:52:28.619Z,9.24
2023-04-16T19:54:56.904Z,9.16
2023-04-16T20:03:16.647Z,9.04
2023-04-16T20:03:59.450Z,9.08
2023-04-16T20:05:43.091Z,9.02
2023-04-16T20:08:09.516Z,8.92
2023-04-16T20:10:36.091Z,8.82
2023-04-16T20:13:02.577Z,8.91
2023-04-16T20:15:28.993Z,8.80
2023-04-16T20:17:56.198Z,8.81
2023-04-16T20:20:23.564Z,8.85
2023-04-16T20:22:53.022Z,8.78
2023-04-16T20:25:19.667Z,8.81
2023-04-16T20:27:46.235Z,8.76
2023-04-16T20:30:13.456Z,8.77
2023-04-16T20:32:40.001Z,8.81
2023-04-16T20:35:10.398Z,8.76
2023-04-16T20:37:38.460Z,8.74
2023-04-16T20:40:07.785Z,8.70
2023-04-16T20:42:34.515Z,8.68
2023-04-16T20:45:01.327Z,8.63
2023-04-16T20:47:27.808Z,8.69
2023-04-16T20:49:54.910Z,8.66
2023-04-16T20:52:59.781Z,8.67
2023-04-16T20:58:16.665Z,8.71
2023-04-16T21:00:43.162Z,8.66
2023-04-16T21:03:09.754Z,8.66
2023-04-16T21:05:36.971Z,8.68
2023-04-16T21:08:03.466Z,8.74
2023-04-16T21:10:29.895Z,8.73
2023-04-16T21:12:56.308Z,8.78
2023-04-16T21:15:22.887Z,8.74
2023-04-16T21:17:49.480Z,8.69
2023-04-16T21:20:16.114Z,8.68
2023-04-16T21:22:42.636Z,8.73
2023-04-16T21:25:09.470Z,8.69
2023-04-16T21:27:35.827Z,8.53
2023-04-16T21:30:02.282Z,8.52
2023-04-16T21:32:28.883Z,8.49
2023-04-16T21:34:55.760Z,8.42
2023-04-16T21:37:22.222Z,8.30
2023-04-16T21:39:48.679Z,8.37
2023-04-16T21:42:15.545Z,8.36
2023-04-16T21:44:42.098Z,8.39
2023-04-16T21:47:08.598Z,8.33
2023-04-16T21:49:35.075Z,8.30
2023-04-16T21:52:02.523Z,8.32
2023-04-16T21:54:29.102Z,8.37
2023-04-16T21:56:56.633Z,8.33
2023-04-16T21:59:23.259Z,8.41
2023-04-16T22:01:49.751Z,8.30
2023-04-16T22:04:16.266Z,8.26
2023-04-16T22:06:43.177Z,8.29
2023-04-16T22:09:09.907Z,8.26
2023-04-16T22:11:36.577Z,8.36
2023-04-16T22:14:03.035Z,8.27
2023-04-16T22:16:29.546Z,8.31
2023-04-16T22:18:56.513Z,8.36
2023-04-16T22:21:22.949Z,8.35
2023-04-16T22:23:49.414Z,8.32
2023-04-16T22:26:16.032Z,8.28
2023-04-16T22:28:42.391Z,8.31
2023-04-16T22:31:10.075Z,8.30
2023-04-16T22:33:36.865Z,8.26
2023-04-16T22:36:03.437Z,8.23
2023-04-16T22:38:29.894Z,8.14
2023-04-16T22:40:56.352Z,8.12
2023-04-16T22:43:23.009Z,8.22
2023-04-16T22:45:49.520Z,8.23
2023-04-16T22:48:16.364Z,8.18
2023-04-16T22:50:48.441Z,8.07
2023-04-16T22:53:15.032Z,8.14
2023-04-16T22:55:41.593Z,8.18
2023-04-16T22:58:07.995Z,8.20
2023-04-16T23:00:34.480Z,8.23
2023-04-16T23:03:01.393Z,8.23
2023-04-16T23:05:28.001Z,8.17
2023-04-16T23:07:54.514Z,8.26
2023-04-16T23:10:20.937Z,8.15
2023-04-16T23:12:47.334Z,8.04
2023-04-16T23:15:14.458Z,8.06
2023-04-16T23:17:41.062Z,8.10
2023-04-16T23:20:09.967Z,8.03
2023-04-16T23:22:36.536Z,8.05
2023-04-16T23:25:03.067Z,8.08
2023-04-16T23:27:29.515Z,8.02
2023-04-16T23:29:55.895Z,8.03
2023-04-16T23:32:22.322Z,8.08
2023-04-16T23:34:48.806Z,8.05
2023-04-16T23:37:15.483Z,7.98
2023-04-16T23:39:41.831Z,7.95
2023-04-16T23:42:08.358Z,7.98
2023-04-16T23:44:34.793Z,8.03
2023-04-16T23:47:01.380Z,8.02
2023-04-16T23:49:28.163Z,8.03
2023-04-16T23:51:54.650Z,8.05
2023-04-16T23:54:21.392Z,7.91
2023-04-16T23:56:47.808Z,7.88
2023-04-16T23:59:14.642Z,7.90
